Weather at Koro Island Airport

Public forecast

Using degrees Celsius for public forecast. Weather courtesy of forecast.io.

Closest aviation weather report (METAR) to Koro Island Airport

Report is more than 6 hours old.

Closest report is Savusavu Airport, 32.9 nm (61.0 km) N. Retrieved 2021/01/18 04:00 UTC (2 days ago):

NFNS 180400Z AUTO 10007KT 060V140 //// ///// Q////

Closest aviation forecast (TAF) to Koro Island Airport

Closest forecast is Nausori International Airport, 64.7 nm (119.9 km) SW. Retrieved 2021/01/20 06:00 UTC (23 minutes ago):

TAF NFNA 200521Z 2006/2106 30005KT 9999 SCT018 BKN040 TEMPO 2100/2106 3000 TSRA BKN015 FEW017CB